sensor_id;sensor_type;location;lat;lon;timestamp;P1;durP1;ratioP1;P2;durP2;ratioP2
84695;SDS011;74913;40.204;44.532;2024-01-25T00:01:09;30.17;;;13.27;;
84695;SDS011;74913;40.204;44.532;2024-01-25T00:03:35;32.97;;;13.50;;
84695;SDS011;74913;40.204;44.532;2024-01-25T00:06:01;32.58;;;13.88;;
84695;SDS011;74913;40.204;44.532;2024-01-25T00:08:27;32.72;;;14.13;;
84695;SDS011;74913;40.204;44.532;2024-01-25T00:10:53;31.17;;;12.85;;
84695;SDS011;74913;40.204;44.532;2024-01-25T00:13:18;27.55;;;11.77;;
84695;SDS011;74913;40.204;44.532;2024-01-25T00:15:44;28.10;;;11.38;;
84695;SDS011;74913;40.204;44.532;2024-01-25T00:18:10;28.65;;;12.15;;
84695;SDS011;74913;40.204;44.532;2024-01-25T00:20:35;25.13;;;11.23;;
84695;SDS011;74913;40.204;44.532;2024-01-25T00:23:01;24.52;;;12.07;;
84695;SDS011;74913;40.204;44.532;2024-01-25T00:25:26;22.27;;;10.93;;
84695;SDS011;74913;40.204;44.532;2024-01-25T00:27:52;23.65;;;9.98;;
84695;SDS011;74913;40.204;44.532;2024-01-25T00:30:18;28.95;;;11.13;;
84695;SDS011;74913;40.204;44.532;2024-01-25T00:32:44;19.85;;;9.15;;
84695;SDS011;74913;40.204;44.532;2024-01-25T00:35:10;23.40;;;10.13;;
84695;SDS011;74913;40.204;44.532;2024-01-25T00:37:38;25.17;;;10.70;;
84695;SDS011;74913;40.204;44.532;2024-01-25T00:40:04;26.40;;;10.77;;
84695;SDS011;74913;40.204;44.532;2024-01-25T00:42:31;30.55;;;11.75;;
84695;SDS011;74913;40.204;44.532;2024-01-25T00:45:00;25.02;;;10.02;;
84695;SDS011;74913;40.204;44.532;2024-01-25T00:47:26;23.02;;;9.82;;
84695;SDS011;74913;40.204;44.532;2024-01-25T00:49:51;24.30;;;11.30;;
84695;SDS011;74913;40.204;44.532;2024-01-25T00:52:17;19.50;;;9.27;;
84695;SDS011;74913;40.204;44.532;2024-01-25T00:54:43;20.50;;;8.82;;
84695;SDS011;74913;40.204;44.532;2024-01-25T00:57:09;20.17;;;8.40;;
84695;SDS011;74913;40.204;44.532;2024-01-25T00:59:35;19.45;;;9.10;;
84695;SDS011;74913;40.204;44.532;2024-01-25T01:02:01;19.00;;;9.07;;
84695;SDS011;74913;40.204;44.532;2024-01-25T01:04:31;21.27;;;8.40;;
84695;SDS011;74913;40.204;44.532;2024-01-25T01:06:57;22.90;;;9.70;;
84695;SDS011;74913;40.204;44.532;2024-01-25T01:09:22;20.75;;;9.80;;
84695;SDS011;74913;40.204;44.532;2024-01-25T01:11:48;20.63;;;9.65;;
84695;SDS011;74913;40.204;44.532;2024-01-25T01:14:16;19.30;;;9.43;;
84695;SDS011;74913;40.204;44.532;2024-01-25T01:16:42;21.23;;;9.48;;
84695;SDS011;74913;40.204;44.532;2024-01-25T01:19:07;24.80;;;11.25;;
84695;SDS011;74913;40.204;44.532;2024-01-25T01:21:34;23.15;;;10.00;;
84695;SDS011;74913;40.204;44.532;2024-01-25T01:24:00;18.40;;;9.48;;
84695;SDS011;74913;40.204;44.532;2024-01-25T01:26:26;20.25;;;8.90;;
84695;SDS011;74913;40.204;44.532;2024-01-25T01:28:52;20.88;;;9.15;;
84695;SDS011;74913;40.204;44.532;2024-01-25T01:31:17;19.85;;;8.38;;
84695;SDS011;74913;40.204;44.532;2024-01-25T01:33:43;17.00;;;7.75;;
84695;SDS011;74913;40.204;44.532;2024-01-25T01:36:08;17.05;;;8.15;;
84695;SDS011;74913;40.204;44.532;2024-01-25T01:38:34;16.20;;;7.32;;
84695;SDS011;74913;40.204;44.532;2024-01-25T01:41:00;14.80;;;6.50;;
84695;SDS011;74913;40.204;44.532;2024-01-25T01:43:25;14.27;;;6.93;;
84695;SDS011;74913;40.204;44.532;2024-01-25T01:45:51;16.50;;;6.57;;
84695;SDS011;74913;40.204;44.532;2024-01-25T01:48:16;16.23;;;6.53;;
84695;SDS011;74913;40.204;44.532;2024-01-25T01:50:43;12.98;;;6.85;;
84695;SDS011;74913;40.204;44.532;2024-01-25T01:53:10;15.57;;;7.10;;
84695;SDS011;74913;40.204;44.532;2024-01-25T01:55:36;11.20;;;6.28;;
84695;SDS011;74913;40.204;44.532;2024-01-25T01:58:04;12.73;;;6.20;;
84695;SDS011;74913;40.204;44.532;2024-01-25T02:00:30;14.50;;;6.03;;
84695;SDS011;74913;40.204;44.532;2024-01-25T02:02:57;16.50;;;6.78;;
84695;SDS011;74913;40.204;44.532;2024-01-25T02:05:23;14.23;;;6.53;;
84695;SDS011;74913;40.204;44.532;2024-01-25T02:07:49;11.98;;;5.47;;
84695;SDS011;74913;40.204;44.532;2024-01-25T02:10:17;10.30;;;4.57;;
84695;SDS011;74913;40.204;44.532;2024-01-25T02:12:43;8.35;;;4.63;;
84695;SDS011;74913;40.204;44.532;2024-01-25T02:15:08;7.43;;;4.15;;
84695;SDS011;74913;40.204;44.532;2024-01-25T02:17:34;7.63;;;4.20;;
84695;SDS011;74913;40.204;44.532;2024-01-25T02:20:00;10.32;;;4.22;;
84695;SDS011;74913;40.204;44.532;2024-01-25T02:22:28;8.85;;;4.93;;
84695;SDS011;74913;40.204;44.532;2024-01-25T02:24:53;11.18;;;4.32;;
84695;SDS011;74913;40.204;44.532;2024-01-25T02:27:19;11.32;;;4.93;;
84695;SDS011;74913;40.204;44.532;2024-01-25T02:29:45;12.30;;;4.78;;
84695;SDS011;74913;40.204;44.532;2024-01-25T02:32:10;6.50;;;3.80;;
84695;SDS011;74913;40.204;44.532;2024-01-25T02:34:36;8.63;;;4.13;;
84695;SDS011;74913;40.204;44.532;2024-01-25T02:37:01;9.68;;;4.05;;
84695;SDS011;74913;40.204;44.532;2024-01-25T02:39:27;10.35;;;4.32;;
84695;SDS011;74913;40.204;44.532;2024-01-25T02:41:53;9.95;;;3.78;;
84695;SDS011;74913;40.204;44.532;2024-01-25T02:44:19;8.55;;;3.75;;
84695;SDS011;74913;40.204;44.532;2024-01-25T02:46:44;9.80;;;5.05;;
84695;SDS011;74913;40.204;44.532;2024-01-25T02:49:11;9.73;;;4.43;;
84695;SDS011;74913;40.204;44.532;2024-01-25T02:51:37;9.38;;;4.38;;
84695;SDS011;74913;40.204;44.532;2024-01-25T02:54:02;11.65;;;4.35;;
84695;SDS011;74913;40.204;44.532;2024-01-25T02:56:28;7.68;;;3.97;;
84695;SDS011;74913;40.204;44.532;2024-01-25T02:59:15;10.38;;;4.57;;
84695;SDS011;74913;40.204;44.532;2024-01-25T03:01:41;8.60;;;3.95;;
84695;SDS011;74913;40.204;44.532;2024-01-25T03:04:07;10.50;;;4.75;;
84695;SDS011;74913;40.204;44.532;2024-01-25T03:06:33;8.88;;;4.68;;
84695;SDS011;74913;40.204;44.532;2024-01-25T03:08:59;8.75;;;4.97;;
84695;SDS011;74913;40.204;44.532;2024-01-25T03:11:24;10.35;;;4.50;;
84695;SDS011;74913;40.204;44.532;2024-01-25T03:13:50;10.77;;;4.78;;
84695;SDS011;74913;40.204;44.532;2024-01-25T03:16:16;7.35;;;4.57;;
84695;SDS011;74913;40.204;44.532;2024-01-25T03:18:41;10.05;;;4.68;;
84695;SDS011;74913;40.204;44.532;2024-01-25T03:21:07;7.40;;;4.00;;
84695;SDS011;74913;40.204;44.532;2024-01-25T03:23:33;10.40;;;4.03;;
84695;SDS011;74913;40.204;44.532;2024-01-25T03:25:58;9.38;;;3.78;;
84695;SDS011;74913;40.204;44.532;2024-01-25T03:28:26;7.78;;;3.72;;
84695;SDS011;74913;40.204;44.532;2024-01-25T03:30:52;5.35;;;3.28;;
84695;SDS011;74913;40.204;44.532;2024-01-25T03:33:17;7.18;;;3.55;;
84695;SDS011;74913;40.204;44.532;2024-01-25T03:35:43;11.35;;;4.25;;
84695;SDS011;74913;40.204;44.532;2024-01-25T03:38:08;7.30;;;3.97;;
84695;SDS011;74913;40.204;44.532;2024-01-25T03:40:34;7.95;;;3.60;;
84695;SDS011;74913;40.204;44.532;2024-01-25T03:43:00;6.85;;;3.55;;
84695;SDS011;74913;40.204;44.532;2024-01-25T03:45:25;6.68;;;3.20;;
84695;SDS011;74913;40.204;44.532;2024-01-25T03:47:51;6.68;;;3.20;;
84695;SDS011;74913;40.204;44.532;2024-01-25T03:50:16;6.15;;;3.17;;
84695;SDS011;74913;40.204;44.532;2024-01-25T03:52:42;5.72;;;3.22;;
84695;SDS011;74913;40.204;44.532;2024-01-25T03:55:08;5.15;;;2.85;;
84695;SDS011;74913;40.204;44.532;2024-01-25T03:57:33;7.38;;;3.58;;
84695;SDS011;74913;40.204;44.532;2024-01-25T03:59:59;7.57;;;2.88;;
84695;SDS011;74913;40.204;44.532;2024-01-25T04:02:25;7.40;;;3.53;;
84695;SDS011;74913;40.204;44.532;2024-01-25T04:04:50;9.15;;;5.90;;
84695;SDS011;74913;40.204;44.532;2024-01-25T04:07:16;7.68;;;4.18;;
84695;SDS011;74913;40.204;44.532;2024-01-25T04:09:41;9.90;;;3.90;;
84695;SDS011;74913;40.204;44.532;2024-01-25T04:12:07;9.25;;;3.95;;
84695;SDS011;74913;40.204;44.532;2024-01-25T04:14:33;9.32;;;3.83;;
84695;SDS011;74913;40.204;44.532;2024-01-25T04:16:58;8.80;;;4.03;;
84695;SDS011;74913;40.204;44.532;2024-01-25T04:19:24;8.18;;;4.07;;
84695;SDS011;74913;40.204;44.532;2024-01-25T04:21:49;8.13;;;3.30;;
84695;SDS011;74913;40.204;44.532;2024-01-25T04:24:15;10.07;;;3.50;;
84695;SDS011;74913;40.204;44.532;2024-01-25T04:26:41;8.57;;;4.10;;
84695;SDS011;74913;40.204;44.532;2024-01-25T04:29:06;11.57;;;4.40;;
84695;SDS011;74913;40.204;44.532;2024-01-25T04:31:32;9.10;;;4.38;;
84695;SDS011;74913;40.204;44.532;2024-01-25T04:33:58;8.10;;;4.18;;
84695;SDS011;74913;40.204;44.532;2024-01-25T04:36:23;6.38;;;3.83;;
84695;SDS011;74913;40.204;44.532;2024-01-25T04:38:49;7.65;;;3.55;;
84695;SDS011;74913;40.204;44.532;2024-01-25T04:41:14;5.70;;;3.80;;
84695;SDS011;74913;40.204;44.532;2024-01-25T04:43:40;7.60;;;3.58;;
84695;SDS011;74913;40.204;44.532;2024-01-25T04:46:06;8.07;;;3.67;;
84695;SDS011;74913;40.204;44.532;2024-01-25T04:48:32;6.82;;;3.65;;
84695;SDS011;74913;40.204;44.532;2024-01-25T04:50:58;9.98;;;4.38;;
84695;SDS011;74913;40.204;44.532;2024-01-25T04:53:24;8.25;;;4.20;;
84695;SDS011;74913;40.204;44.532;2024-01-25T04:55:50;9.25;;;4.93;;
84695;SDS011;74913;40.204;44.532;2024-01-25T04:58:15;8.35;;;4.68;;
84695;SDS011;74913;40.204;44.532;2024-01-25T05:00:41;10.00;;;4.57;;
84695;SDS011;74913;40.204;44.532;2024-01-25T05:03:07;7.18;;;4.38;;
84695;SDS011;74913;40.204;44.532;2024-01-25T05:05:32;9.52;;;4.55;;
84695;SDS011;74913;40.204;44.532;2024-01-25T05:07:58;10.48;;;4.72;;
84695;SDS011;74913;40.204;44.532;2024-01-25T05:10:23;9.48;;;4.88;;
84695;SDS011;74913;40.204;44.532;2024-01-25T05:15:16;11.93;;;6.35;;
84695;SDS011;74913;40.204;44.532;2024-01-25T05:17:41;16.33;;;7.88;;
84695;SDS011;74913;40.204;44.532;2024-01-25T05:20:07;11.43;;;5.10;;
84695;SDS011;74913;40.204;44.532;2024-01-25T05:22:33;11.27;;;4.78;;
84695;SDS011;74913;40.204;44.532;2024-01-25T05:25:05;10.52;;;5.32;;
84695;SDS011;74913;40.204;44.532;2024-01-25T05:27:31;12.55;;;5.60;;
84695;SDS011;74913;40.204;44.532;2024-01-25T05:29:56;12.52;;;5.93;;
84695;SDS011;74913;40.204;44.532;2024-01-25T05:32:22;8.90;;;4.40;;
84695;SDS011;74913;40.204;44.532;2024-01-25T05:34:48;13.95;;;5.60;;
84695;SDS011;74913;40.204;44.532;2024-01-25T05:37:13;11.27;;;5.78;;
84695;SDS011;74913;40.204;44.532;2024-01-25T05:39:39;10.10;;;5.68;;
84695;SDS011;74913;40.204;44.532;2024-01-25T05:42:05;10.88;;;5.85;;
84695;SDS011;74913;40.204;44.532;2024-01-25T05:44:30;11.30;;;6.10;;
84695;SDS011;74913;40.204;44.532;2024-01-25T05:46:56;17.48;;;7.97;;
84695;SDS011;74913;40.204;44.532;2024-01-25T05:49:21;18.38;;;7.93;;
84695;SDS011;74913;40.204;44.532;2024-01-25T05:51:47;22.52;;;10.35;;
84695;SDS011;74913;40.204;44.532;2024-01-25T05:54:13;32.10;;;14.25;;
84695;SDS011;74913;40.204;44.532;2024-01-25T05:56:38;53.72;;;18.75;;
84695;SDS011;74913;40.204;44.532;2024-01-25T05:59:04;58.22;;;19.95;;
84695;SDS011;74913;40.204;44.532;2024-01-25T06:01:30;50.92;;;20.83;;
84695;SDS011;74913;40.204;44.532;2024-01-25T06:03:55;34.38;;;14.60;;
84695;SDS011;74913;40.204;44.532;2024-01-25T06:06:21;33.42;;;13.13;;
84695;SDS011;74913;40.204;44.532;2024-01-25T06:08:46;21.33;;;9.68;;
84695;SDS011;74913;40.204;44.532;2024-01-25T06:11:12;19.23;;;7.35;;
84695;SDS011;74913;40.204;44.532;2024-01-25T06:13:38;14.43;;;7.35;;
84695;SDS011;74913;40.204;44.532;2024-01-25T06:16:03;15.00;;;9.02;;
84695;SDS011;74913;40.204;44.532;2024-01-25T06:18:29;38.00;;;17.70;;
84695;SDS011;74913;40.204;44.532;2024-01-25T06:20:55;21.00;;;10.35;;
84695;SDS011;74913;40.204;44.532;2024-01-25T06:23:20;20.83;;;8.55;;
84695;SDS011;74913;40.204;44.532;2024-01-25T06:25:46;17.17;;;10.50;;
84695;SDS011;74913;40.204;44.532;2024-01-25T06:28:11;17.65;;;9.63;;
84695;SDS011;74913;40.204;44.532;2024-01-25T06:30:37;20.20;;;8.60;;
84695;SDS011;74913;40.204;44.532;2024-01-25T06:33:03;14.07;;;7.07;;
84695;SDS011;74913;40.204;44.532;2024-01-25T06:35:29;13.65;;;7.18;;
84695;SDS011;74913;40.204;44.532;2024-01-25T06:37:55;25.73;;;12.25;;
84695;SDS011;74913;40.204;44.532;2024-01-25T06:40:21;24.02;;;11.23;;
84695;SDS011;74913;40.204;44.532;2024-01-25T06:42:47;16.33;;;8.30;;
84695;SDS011;74913;40.204;44.532;2024-01-25T06:45:12;18.23;;;9.23;;
84695;SDS011;74913;40.204;44.532;2024-01-25T06:47:38;20.17;;;11.45;;
84695;SDS011;74913;40.204;44.532;2024-01-25T06:50:03;18.85;;;11.32;;
84695;SDS011;74913;40.204;44.532;2024-01-25T06:52:30;14.85;;;9.15;;
84695;SDS011;74913;40.204;44.532;2024-01-25T06:54:55;16.05;;;9.15;;
84695;SDS011;74913;40.204;44.532;2024-01-25T06:57:21;18.33;;;8.93;;
84695;SDS011;74913;40.204;44.532;2024-01-25T06:59:47;12.82;;;6.90;;
84695;SDS011;74913;40.204;44.532;2024-01-25T07:02:13;11.57;;;6.45;;
84695;SDS011;74913;40.204;44.532;2024-01-25T07:04:38;12.73;;;7.35;;
84695;SDS011;74913;40.204;44.532;2024-01-25T07:07:05;15.68;;;7.63;;
84695;SDS011;74913;40.204;44.532;2024-01-25T07:09:31;12.05;;;7.45;;
84695;SDS011;74913;40.204;44.532;2024-01-25T07:11:57;17.55;;;9.98;;
84695;SDS011;74913;40.204;44.532;2024-01-25T07:14:23;14.52;;;7.95;;
84695;SDS011;74913;40.204;44.532;2024-01-25T07:16:48;13.10;;;8.23;;
84695;SDS011;74913;40.204;44.532;2024-01-25T07:19:14;19.45;;;10.20;;
84695;SDS011;74913;40.204;44.532;2024-01-25T07:21:40;36.45;;;16.58;;
84695;SDS011;74913;40.204;44.532;2024-01-25T07:24:05;22.20;;;11.43;;
84695;SDS011;74913;40.204;44.532;2024-01-25T07:26:31;17.52;;;10.18;;
84695;SDS011;74913;40.204;44.532;2024-01-25T07:28:57;44.13;;;19.42;;
84695;SDS011;74913;40.204;44.532;2024-01-25T07:31:26;37.17;;;19.38;;
84695;SDS011;74913;40.204;44.532;2024-01-25T07:33:52;34.67;;;16.10;;
84695;SDS011;74913;40.204;44.532;2024-01-25T07:36:18;19.85;;;11.15;;
84695;SDS011;74913;40.204;44.532;2024-01-25T07:41:19;20.27;;;11.07;;
84695;SDS011;74913;40.204;44.532;2024-01-25T07:43:45;22.75;;;10.98;;
84695;SDS011;74913;40.204;44.532;2024-01-25T07:46:11;21.45;;;11.63;;
84695;SDS011;74913;40.204;44.532;2024-01-25T07:48:39;22.30;;;11.95;;
84695;SDS011;74913;40.204;44.532;2024-01-25T07:51:10;19.27;;;12.18;;
84695;SDS011;74913;40.204;44.532;2024-01-25T07:53:37;23.23;;;12.07;;
84695;SDS011;74913;40.204;44.532;2024-01-25T07:56:03;22.42;;;12.93;;
84695;SDS011;74913;40.204;44.532;2024-01-25T07:58:31;31.30;;;15.02;;
84695;SDS011;74913;40.204;44.532;2024-01-25T08:00:56;32.13;;;15.65;;
84695;SDS011;74913;40.204;44.532;2024-01-25T08:03:22;30.58;;;16.42;;
84695;SDS011;74913;40.204;44.532;2024-01-25T08:05:47;27.45;;;14.98;;
84695;SDS011;74913;40.204;44.532;2024-01-25T08:08:13;27.52;;;13.98;;
84695;SDS011;74913;40.204;44.532;2024-01-25T08:10:39;23.17;;;14.32;;
84695;SDS011;74913;40.204;44.532;2024-01-25T08:13:04;19.52;;;11.75;;
84695;SDS011;74913;40.204;44.532;2024-01-25T08:15:30;22.77;;;11.25;;
84695;SDS011;74913;40.204;44.532;2024-01-25T08:17:55;19.45;;;11.25;;
84695;SDS011;74913;40.204;44.532;2024-01-25T08:20:21;25.10;;;12.48;;
84695;SDS011;74913;40.204;44.532;2024-01-25T08:22:47;23.95;;;13.27;;
84695;SDS011;74913;40.204;44.532;2024-01-25T08:25:12;27.67;;;14.77;;
84695;SDS011;74913;40.204;44.532;2024-01-25T08:27:39;24.05;;;14.43;;
84695;SDS011;74913;40.204;44.532;2024-01-25T08:30:05;25.92;;;15.68;;
84695;SDS011;74913;40.204;44.532;2024-01-25T08:32:31;24.25;;;15.15;;
84695;SDS011;74913;40.204;44.532;2024-01-25T08:34:57;30.10;;;16.00;;
84695;SDS011;74913;40.204;44.532;2024-01-25T08:37:22;27.90;;;15.23;;
84695;SDS011;74913;40.204;44.532;2024-01-25T08:39:48;29.38;;;16.67;;
84695;SDS011;74913;40.204;44.532;2024-01-25T08:42:16;28.90;;;16.55;;
84695;SDS011;74913;40.204;44.532;2024-01-25T08:44:42;34.55;;;18.90;;
84695;SDS011;74913;40.204;44.532;2024-01-25T08:47:14;45.95;;;22.85;;
84695;SDS011;74913;40.204;44.532;2024-01-25T08:49:43;39.80;;;21.30;;
84695;SDS011;74913;40.204;44.532;2024-01-25T08:52:09;42.03;;;20.45;;
84695;SDS011;74913;40.204;44.532;2024-01-25T08:54:34;41.58;;;22.20;;
84695;SDS011;74913;40.204;44.532;2024-01-25T08:57:02;39.47;;;20.50;;
84695;SDS011;74913;40.204;44.532;2024-01-25T08:59:29;40.03;;;21.95;;
84695;SDS011;74913;40.204;44.532;2024-01-25T09:01:57;34.90;;;18.88;;
84695;SDS011;74913;40.204;44.532;2024-01-25T09:04:23;37.95;;;19.98;;
84695;SDS011;74913;40.204;44.532;2024-01-25T09:06:48;33.15;;;18.15;;
84695;SDS011;74913;40.204;44.532;2024-01-25T09:09:14;40.15;;;18.83;;
84695;SDS011;74913;40.204;44.532;2024-01-25T09:11:39;38.40;;;20.15;;
84695;SDS011;74913;40.204;44.532;2024-01-25T09:14:05;35.55;;;18.20;;
84695;SDS011;74913;40.204;44.532;2024-01-25T09:16:31;37.15;;;19.52;;
84695;SDS011;74913;40.204;44.532;2024-01-25T09:18:56;36.38;;;19.35;;
84695;SDS011;74913;40.204;44.532;2024-01-25T09:21:22;38.58;;;21.88;;
84695;SDS011;74913;40.204;44.532;2024-01-25T09:23:47;37.50;;;20.55;;
84695;SDS011;74913;40.204;44.532;2024-01-25T09:26:13;32.95;;;18.05;;
84695;SDS011;74913;40.204;44.532;2024-01-25T09:28:39;31.92;;;18.48;;
84695;SDS011;74913;40.204;44.532;2024-01-25T09:31:04;29.08;;;16.98;;
84695;SDS011;74913;40.204;44.532;2024-01-25T09:33:30;23.88;;;14.75;;
84695;SDS011;74913;40.204;44.532;2024-01-25T09:35:55;33.85;;;17.48;;
84695;SDS011;74913;40.204;44.532;2024-01-25T09:38:21;30.20;;;17.92;;
84695;SDS011;74913;40.204;44.532;2024-01-25T09:40:47;31.30;;;16.40;;
84695;SDS011;74913;40.204;44.532;2024-01-25T09:43:14;57.33;;;25.13;;
84695;SDS011;74913;40.204;44.532;2024-01-25T09:45:40;78.80;;;33.75;;
84695;SDS011;74913;40.204;44.532;2024-01-25T09:48:07;90.15;;;37.10;;
84695;SDS011;74913;40.204;44.532;2024-01-25T09:50:32;61.30;;;29.83;;
84695;SDS011;74913;40.204;44.532;2024-01-25T09:52:59;48.75;;;24.70;;
84695;SDS011;74913;40.204;44.532;2024-01-25T09:55:26;35.55;;;19.55;;
84695;SDS011;74913;40.204;44.532;2024-01-25T09:57:55;37.53;;;20.50;;
84695;SDS011;74913;40.204;44.532;2024-01-25T10:00:21;24.83;;;14.02;;
84695;SDS011;74913;40.204;44.532;2024-01-25T10:02:50;26.20;;;15.35;;
84695;SDS011;74913;40.204;44.532;2024-01-25T10:05:16;44.08;;;21.30;;
84695;SDS011;74913;40.204;44.532;2024-01-25T10:07:43;27.05;;;15.73;;
84695;SDS011;74913;40.204;44.532;2024-01-25T10:10:11;26.50;;;14.05;;
84695;SDS011;74913;40.204;44.532;2024-01-25T10:12:40;28.80;;;15.32;;
84695;SDS011;74913;40.204;44.532;2024-01-25T10:15:07;28.60;;;15.32;;
84695;SDS011;74913;40.204;44.532;2024-01-25T10:17:34;72.75;;;30.40;;
84695;SDS011;74913;40.204;44.532;2024-01-25T10:20:00;37.72;;;18.08;;
84695;SDS011;74913;40.204;44.532;2024-01-25T10:22:25;22.60;;;14.05;;
84695;SDS011;74913;40.204;44.532;2024-01-25T10:24:52;30.17;;;14.73;;
84695;SDS011;74913;40.204;44.532;2024-01-25T10:27:21;24.77;;;11.60;;
84695;SDS011;74913;40.204;44.532;2024-01-25T10:29:48;21.50;;;11.68;;
84695;SDS011;74913;40.204;44.532;2024-01-25T10:32:15;26.10;;;13.77;;
84695;SDS011;74913;40.204;44.532;2024-01-25T10:34:41;26.27;;;13.95;;
84695;SDS011;74913;40.204;44.532;2024-01-25T10:37:10;24.38;;;14.02;;
84695;SDS011;74913;40.204;44.532;2024-01-25T10:39:39;19.58;;;11.13;;
84695;SDS011;74913;40.204;44.532;2024-01-25T10:42:06;22.98;;;11.77;;
84695;SDS011;74913;40.204;44.532;2024-01-25T10:44:32;21.70;;;11.75;;
84695;SDS011;74913;40.204;44.532;2024-01-25T10:46:58;23.90;;;13.55;;
84695;SDS011;74913;40.204;44.532;2024-01-25T10:49:24;37.35;;;16.27;;
84695;SDS011;74913;40.204;44.532;2024-01-25T10:51:51;73.95;;;26.25;;
84695;SDS011;74913;40.204;44.532;2024-01-25T10:54:18;76.50;;;24.13;;
84695;SDS011;74913;40.204;44.532;2024-01-25T10:56:47;53.97;;;20.42;;
84695;SDS011;74913;40.204;44.532;2024-01-25T10:59:13;36.10;;;16.67;;
84695;SDS011;74913;40.204;44.532;2024-01-25T11:01:43;25.30;;;13.80;;
84695;SDS011;74913;40.204;44.532;2024-01-25T11:04:13;19.40;;;10.98;;
84695;SDS011;74913;40.204;44.532;2024-01-25T11:06:43;18.70;;;10.75;;
84695;SDS011;74913;40.204;44.532;2024-01-25T11:09:19;18.88;;;10.80;;
84695;SDS011;74913;40.204;44.532;2024-01-25T11:11:47;18.83;;;11.50;;
84695;SDS011;74913;40.204;44.532;2024-01-25T11:14:14;24.08;;;15.85;;
84695;SDS011;74913;40.204;44.532;2024-01-25T11:16:41;21.02;;;12.85;;
84695;SDS011;74913;40.204;44.532;2024-01-25T11:19:15;47.72;;;21.38;;
84695;SDS011;74913;40.204;44.532;2024-01-25T11:24:16;23.02;;;14.60;;
84695;SDS011;74913;40.204;44.532;2024-01-25T11:26:54;21.15;;;12.07;;
84695;SDS011;74913;40.204;44.532;2024-01-25T11:29:20;21.27;;;11.40;;
84695;SDS011;74913;40.204;44.532;2024-01-25T11:31:52;18.00;;;10.82;;
84695;SDS011;74913;40.204;44.532;2024-01-25T11:34:18;14.82;;;10.07;;
84695;SDS011;74913;40.204;44.532;2024-01-25T11:36:44;19.88;;;10.05;;
84695;SDS011;74913;40.204;44.532;2024-01-25T11:39:14;19.42;;;11.32;;
84695;SDS011;74913;40.204;44.532;2024-01-25T11:41:40;17.48;;;10.82;;
84695;SDS011;74913;40.204;44.532;2024-01-25T11:44:08;18.65;;;11.23;;
84695;SDS011;74913;40.204;44.532;2024-01-25T11:46:34;17.48;;;11.60;;
84695;SDS011;74913;40.204;44.532;2024-01-25T11:49:00;18.42;;;12.13;;
84695;SDS011;74913;40.204;44.532;2024-01-25T11:51:27;22.98;;;13.52;;
84695;SDS011;74913;40.204;44.532;2024-01-25T11:53:52;28.95;;;13.23;;
84695;SDS011;74913;40.204;44.532;2024-01-25T11:56:26;21.00;;;13.15;;
84695;SDS011;74913;40.204;44.532;2024-01-25T11:58:55;32.75;;;18.40;;
84695;SDS011;74913;40.204;44.532;2024-01-25T12:01:22;25.15;;;13.60;;
84695;SDS011;74913;40.204;44.532;2024-01-25T12:03:49;23.90;;;13.73;;
84695;SDS011;74913;40.204;44.532;2024-01-25T12:08:42;33.80;;;15.13;;
84695;SDS011;74913;40.204;44.532;2024-01-25T12:11:08;23.85;;;14.27;;
84695;SDS011;74913;40.204;44.532;2024-01-25T12:13:35;24.38;;;14.30;;
84695;SDS011;74913;40.204;44.532;2024-01-25T12:16:04;24.30;;;13.88;;
84695;SDS011;74913;40.204;44.532;2024-01-25T12:18:30;18.85;;;11.80;;
84695;SDS011;74913;40.204;44.532;2024-01-25T12:23:32;20.42;;;10.32;;
84695;SDS011;74913;40.204;44.532;2024-01-25T12:25:59;22.67;;;11.48;;
84695;SDS011;74913;40.204;44.532;2024-01-25T12:28:26;21.85;;;12.02;;
84695;SDS011;74913;40.204;44.532;2024-01-25T12:30:53;19.35;;;12.57;;
84695;SDS011;74913;40.204;44.532;2024-01-25T12:33:19;25.60;;;13.27;;
84695;SDS011;74913;40.204;44.532;2024-01-25T12:35:45;16.83;;;10.32;;
84695;SDS011;74913;40.204;44.532;2024-01-25T12:38:10;22.17;;;12.50;;
84695;SDS011;74913;40.204;44.532;2024-01-25T12:40:36;36.40;;;13.52;;
84695;SDS011;74913;40.204;44.532;2024-01-25T12:43:01;45.55;;;18.38;;
84695;SDS011;74913;40.204;44.532;2024-01-25T12:45:27;33.97;;;15.85;;
84695;SDS011;74913;40.204;44.532;2024-01-25T12:47:53;30.13;;;15.45;;
84695;SDS011;74913;40.204;44.532;2024-01-25T12:50:18;20.00;;;12.73;;
84695;SDS011;74913;40.204;44.532;2024-01-25T12:52:45;24.88;;;12.57;;
84695;SDS011;74913;40.204;44.532;2024-01-25T12:55:11;20.02;;;12.57;;
84695;SDS011;74913;40.204;44.532;2024-01-25T12:57:37;17.27;;;12.27;;
84695;SDS011;74913;40.204;44.532;2024-01-25T13:00:03;19.17;;;12.20;;
84695;SDS011;74913;40.204;44.532;2024-01-25T13:04:55;17.85;;;11.85;;
84695;SDS011;74913;40.204;44.532;2024-01-25T13:07:20;17.88;;;12.02;;
84695;SDS011;74913;40.204;44.532;2024-01-25T13:09:46;30.70;;;13.65;;
84695;SDS011;74913;40.204;44.532;2024-01-25T13:12:11;19.25;;;13.07;;
84695;SDS011;74913;40.204;44.532;2024-01-25T13:14:37;22.52;;;12.43;;
84695;SDS011;74913;40.204;44.532;2024-01-25T13:17:03;22.52;;;14.13;;
84695;SDS011;74913;40.204;44.532;2024-01-25T13:19:29;20.38;;;13.18;;
84695;SDS011;74913;40.204;44.532;2024-01-25T13:21:55;19.40;;;12.35;;
84695;SDS011;74913;40.204;44.532;2024-01-25T13:24:20;20.83;;;11.13;;
84695;SDS011;74913;40.204;44.532;2024-01-25T13:26:46;23.02;;;12.93;;
84695;SDS011;74913;40.204;44.532;2024-01-25T13:29:12;19.65;;;12.05;;
84695;SDS011;74913;40.204;44.532;2024-01-25T13:31:39;22.05;;;12.18;;
84695;SDS011;74913;40.204;44.532;2024-01-25T13:34:05;20.98;;;12.75;;
84695;SDS011;74913;40.204;44.532;2024-01-25T13:36:30;19.65;;;12.40;;
84695;SDS011;74913;40.204;44.532;2024-01-25T13:38:56;21.90;;;14.15;;
84695;SDS011;74913;40.204;44.532;2024-01-25T13:41:22;22.88;;;12.48;;
84695;SDS011;74913;40.204;44.532;2024-01-25T13:43:47;20.33;;;12.55;;
84695;SDS011;74913;40.204;44.532;2024-01-25T13:46:13;23.95;;;13.50;;
84695;SDS011;74913;40.204;44.532;2024-01-25T13:48:39;29.23;;;14.90;;
84695;SDS011;74913;40.204;44.532;2024-01-25T13:51:04;33.55;;;18.45;;
84695;SDS011;74913;40.204;44.532;2024-01-25T13:53:31;26.65;;;14.98;;
84695;SDS011;74913;40.204;44.532;2024-01-25T13:58:22;19.23;;;12.02;;
84695;SDS011;74913;40.204;44.532;2024-01-25T14:00:48;21.70;;;13.25;;
84695;SDS011;74913;40.204;44.532;2024-01-25T14:03:14;22.80;;;12.57;;
84695;SDS011;74913;40.204;44.532;2024-01-25T14:05:42;23.92;;;13.38;;
84695;SDS011;74913;40.204;44.532;2024-01-25T14:08:07;21.95;;;12.88;;
84695;SDS011;74913;40.204;44.532;2024-01-25T14:10:33;23.80;;;15.10;;
84695;SDS011;74913;40.204;44.532;2024-01-25T14:12:59;25.90;;;14.15;;
84695;SDS011;74913;40.204;44.532;2024-01-25T14:15:25;24.92;;;13.65;;
84695;SDS011;74913;40.204;44.532;2024-01-25T14:17:51;19.60;;;11.05;;
84695;SDS011;74913;40.204;44.532;2024-01-25T14:20:17;21.05;;;11.25;;
84695;SDS011;74913;40.204;44.532;2024-01-25T14:22:43;19.08;;;9.90;;
84695;SDS011;74913;40.204;44.532;2024-01-25T14:25:09;19.92;;;12.18;;
84695;SDS011;74913;40.204;44.532;2024-01-25T14:27:35;20.85;;;12.43;;